Time;durP1;ratioP1;P1;durP2;ratioP2;P2;SDS_P1;SDS_P2;PMS_P1;PMS_P2;Temp;Humidity;BMP_temperature;BMP_pressure;BME280_temperature;BME280_humidity;BME280_pressure;Samples;Min_cycle;Max_cycle;Signal;HPM_P1;HPM_P2
2021/12/26 00:01:27;;;;;;;1.20;1.20;;;;;;;-3.63;100.00;100915.25;6217910;23;20325;-77
2021/12/26 00:03:53;;;;;;;1.10;1.10;;;;;;;-3.67;100.00;100913.50;6216828;23;20015;-77
2021/12/26 00:06:25;;;;;;;1.05;1.05;;;;;;;-3.75;100.00;100909.91;6216823;23;20023;-77
2021/12/26 00:08:53;;;;;;;1.00;1.00;;;;;;;-3.80;100.00;100911.53;6217685;23;20001;-77
2021/12/26 00:11:18;;;;;;;1.48;1.38;;;;;;;-3.92;100.00;100900.94;6217499;23;20000;-77
2021/12/26 00:13:44;;;;;;;1.00;1.00;;;;;;;-4.02;100.00;100907.75;6216711;23;20087;-76
2021/12/26 00:16:11;;;;;;;1.17;1.17;;;;;;;-4.01;100.00;100914.66;6216926;23;20004;-77
2021/12/26 00:18:42;;;;;;;1.00;1.00;;;;;;;-4.08;100.00;100915.38;6217764;23;20075;-77
2021/12/26 00:21:08;;;;;;;1.00;1.00;;;;;;;-4.13;100.00;100914.47;6217493;23;20015;-77
2021/12/26 00:23:33;;;;;;;1.00;1.00;;;;;;;-4.09;100.00;100917.97;6216502;23;20172;-77
2021/12/26 00:26:07;;;;;;;1.10;1.10;;;;;;;-4.12;100.00;100913.59;6217600;23;20009;-77
2021/12/26 00:28:32;;;;;;;1.05;1.05;;;;;;;-3.74;100.00;100919.41;6218186;23;20015;-78
2021/12/26 00:34:08;;;;;;;1.05;1.05;;;;;;;-4.01;100.00;100903.41;6217758;23;20040;-77
2021/12/26 00:36:33;;;;;;;1.08;1.08;;;;;;;-4.07;100.00;100913.69;6217460;23;20012;-77
2021/12/26 00:38:58;;;;;;;1.38;1.30;;;;;;;-4.10;100.00;100905.84;6217450;23;20015;-77
2021/12/26 00:41:24;;;;;;;1.17;1.17;;;;;;;-4.17;100.00;100901.38;6217101;23;20087;-77
2021/12/26 00:43:49;;;;;;;1.10;1.10;;;;;;;-4.17;100.00;100898.78;6217346;23;20007;-77
2021/12/26 00:46:15;;;;;;;1.17;1.17;;;;;;;-4.14;100.00;100904.03;6217570;23;20083;-77
2021/12/26 00:48:41;;;;;;;1.50;1.40;;;;;;;-4.23;100.00;100893.50;6217869;23;20004;-77
2021/12/26 00:51:06;;;;;;;1.23;1.23;;;;;;;-4.17;100.00;100898.78;6216624;23;20376;-77
2021/12/26 00:53:33;;;;;;;1.10;1.10;;;;;;;-4.26;100.00;100893.47;6217137;23;20000;-77
2021/12/26 00:55:58;;;;;;;1.40;1.30;;;;;;;-4.24;100.00;100900.44;6216660;23;20040;-77
2021/12/26 00:58:24;;;;;;;1.38;1.30;;;;;;;-4.26;100.00;100893.47;6217055;23;20098;-77
2021/12/26 01:00:51;;;;;;;1.27;1.27;;;;;;;-4.33;100.00;100902.84;6217177;23;20005;-77
2021/12/26 01:03:18;;;;;;;1.45;1.35;;;;;;;-4.33;100.00;100896.81;6217338;23;20000;-77
2021/12/26 01:05:55;;;;;;;1.27;1.27;;;;;;;-4.35;100.00;100899.38;6216784;23;20417;-77
2021/12/26 01:08:26;;;;;;;1.20;1.20;;;;;;;-4.36;100.00;100889.84;6216942;23;20004;-77
2021/12/26 01:11:22;;;;;;;1.58;1.38;;;;;;;-4.39;100.00;100902.75;6216757;23;20005;-77
2021/12/26 01:13:49;;;;;;;1.30;1.25;;;;;;;-4.33;100.00;100889.03;6217063;23;20011;-77
2021/12/26 01:16:19;;;;;;;2.00;1.90;;;;;;;-4.36;100.00;100891.53;6216888;23;20341;-78
2021/12/26 01:18:51;;;;;;;1.40;1.30;;;;;;;-4.40;100.00;100905.31;6216917;23;20009;-77
2021/12/26 01:21:25;;;;;;;1.63;1.52;;;;;;;-4.37;100.00;100906.25;6216848;23;20012;-77
2021/12/26 01:23:57;;;;;;;1.60;1.50;;;;;;;-4.40;100.00;100906.19;6216701;23;20015;-77
2021/12/26 01:26:23;;;;;;;1.20;1.20;;;;;;;-4.34;100.00;100911.47;6216744;23;20012;-77
2021/12/26 01:28:49;;;;;;;1.20;1.20;;;;;;;-4.37;100.00;100906.25;6217125;23;20004;-77
2021/12/26 01:31:18;;;;;;;1.10;1.10;;;;;;;-4.43;100.00;100900.06;6216699;23;20016;-77
2021/12/26 01:33:45;;;;;;;;;;;;;;;-4.42;100.00;100897.50;6217343;23;20005;-77
2021/12/26 01:36:10;;;;;;;1.20;1.20;;;;;;;-4.41;100.00;100898.41;6217304;23;19915;-77
2021/12/26 01:38:36;;;;;;;1.30;1.30;;;;;;;-4.42;100.00;100887.16;6216572;23;20364;-77
2021/12/26 01:41:09;;;;;;;1.27;1.27;;;;;;;-4.45;100.00;100893.97;6216284;23;20031;-77
2021/12/26 01:43:35;;;;;;;1.42;1.33;;;;;;;-4.54;100.00;100889.53;6216887;23;20421;-77
2021/12/26 01:46:01;;;;;;;1.40;1.30;;;;;;;-4.49;100.00;100897.38;6217025;23;20000;-77
2021/12/26 01:48:27;;;;;;;6.13;1.95;;;;;;;-4.42;100.00;100894.03;6217827;23;20015;-76
2021/12/26 01:50:54;;;;;;;1.50;1.40;;;;;;;-4.49;100.00;100889.59;6217986;23;20456;-77
2021/12/26 01:53:23;;;;;;;1.83;1.73;;;;;;;-4.49;100.00;100884.41;6217841;23;20000;-77
2021/12/26 01:55:49;;;;;;;1.42;1.33;;;;;;;-4.50;100.00;100873.16;6218596;23;20043;-77
2021/12/26 01:58:29;;;;;;;1.38;1.30;;;;;;;-4.48;100.00;100876.66;6217506;23;20015;-77
2021/12/26 02:01:01;;;;;;;1.40;1.30;;;;;;;-4.54;100.00;100871.38;6218811;23;20005;-77
2021/12/26 02:03:27;;;;;;;1.20;1.20;;;;;;;-4.57;100.00;100865.25;6217815;23;20017;-76
2021/12/26 02:05:53;;;;;;;1.40;1.30;;;;;;;-4.52;100.00;100861.91;6218374;23;20368;-78
2021/12/26 02:08:18;;;;;;;1.20;1.20;;;;;;;-4.45;100.00;100858.59;6218486;23;20005;-77
2021/12/26 02:10:44;;;;;;;1.65;1.55;;;;;;;-4.42;100.00;100862.94;6217529;23;20004;-77
2021/12/26 02:13:10;;;;;;;1.60;1.50;;;;;;;-4.49;100.00;100864.53;6218406;23;20087;-77
2021/12/26 02:15:36;;;;;;;1.20;1.20;;;;;;;-4.48;100.00;100868.00;6219257;23;20005;-77
2021/12/26 02:18:04;;;;;;;1.50;1.40;;;;;;;-4.44;100.00;100862.91;6218245;23;20000;-77
2021/12/26 02:23:25;;;;;;;1.40;1.30;;;;;;;-4.48;100.00;100874.09;6217828;23;20021;-77
2021/12/26 02:28:37;;;;;;;1.30;1.30;;;;;;;-4.48;100.00;100866.31;6202539;23;20062;-77
2021/12/26 02:31:04;;;;;;;1.38;1.30;;;;;;;-4.42;100.00;100866.41;6218034;23;20009;-77
2021/12/26 02:33:30;;;;;;;1.38;1.30;;;;;;;-4.40;100.00;100866.44;6218586;23;20023;-77
2021/12/26 02:35:55;;;;;;;1.25;1.25;;;;;;;-4.46;100.00;100869.81;6218263;23;20008;-77
2021/12/26 02:38:21;;;;;;;1.77;1.67;;;;;;;-4.44;100.00;100857.72;6216556;23;20001;-77
2021/12/26 02:40:48;;;;;;;1.20;1.20;;;;;;;-4.45;100.00;100849.91;6218428;23;20035;-77
2021/12/26 02:43:16;;;;;;;2.03;1.92;;;;;;;-4.47;100.00;100855.09;6217508;23;20005;-77
2021/12/26 02:45:42;;;;;;;1.30;1.30;;;;;;;-4.48;100.00;100850.75;6218101;23;20100;-77
2021/12/26 02:48:09;;;;;;;1.48;1.38;;;;;;;-4.45;100.00;100848.22;6217571;23;20005;-77
2021/12/26 02:50:38;;;;;;;1.50;1.40;;;;;;;-4.39;100.00;100850.91;6218486;23;20083;-77
2021/12/26 02:53:04;;;;;;;1.43;1.33;;;;;;;-4.48;100.00;100849.88;6217882;23;20031;-77
2021/12/26 02:55:29;;;;;;;1.20;1.20;;;;;;;-4.54;100.00;100848.06;6218192;23;20305;-77
2021/12/26 02:57:59;;;;;;;1.20;1.20;;;;;;;-4.56;100.00;100846.28;6217329;23;20006;-77
2021/12/26 03:00:28;;;;;;;1.35;1.30;;;;;;;-4.53;100.00;100842.03;6216438;23;20412;-77
2021/12/26 03:02:55;;;;;;;1.10;1.10;;;;;;;-4.49;100.00;100837.78;6217455;23;20005;-77
2021/12/26 03:05:25;;;;;;;1.15;1.15;;;;;;;-4.55;100.00;100830.75;6218030;23;20413;-77
2021/12/26 03:07:50;;;;;;;1.60;1.50;;;;;;;-4.54;100.00;100835.09;6217631;23;20413;-77
2021/12/26 03:10:23;;;;;;;1.10;1.10;;;;;;;-4.56;100.00;100833.31;6217010;23;20009;-77
2021/12/26 03:12:51;;;;;;;1.50;1.40;;;;;;;-4.58;100.00;100828.09;6217733;23;20005;-77
2021/12/26 03:15:17;;;;;;;1.35;1.33;;;;;;;-4.52;100.00;100820.44;6218332;23;20075;-77
2021/12/26 03:17:43;;;;;;;1.30;1.30;;;;;;;-4.45;100.00;100819.69;6217259;23;20095;-77
2021/12/26 03:20:10;;;;;;;1.10;1.10;;;;;;;-4.48;100.00;100811.88;6217657;23;20035;-77
2021/12/26 03:22:36;;;;;;;1.10;1.10;;;;;;;-4.44;100.00;100805.03;6216612;23;20001;-77
2021/12/26 03:25:03;;;;;;;1.10;1.10;;;;;;;-4.52;100.00;100802.28;6217243;23;20450;-77
2021/12/26 03:27:28;;;;;;;1.52;1.42;;;;;;;-4.46;100.00;100799.84;6217870;23;20000;-77
2021/12/26 03:29:54;;;;;;;1.10;1.10;;;;;;;-4.50;100.00;100800.59;6216419;23;20008;-77
2021/12/26 03:32:19;;;;;;;1.00;1.00;;;;;;;-4.51;100.00;100814.44;6218034;23;20058;-77
2021/12/26 03:34:49;;;;;;;1.10;1.10;;;;;;;-4.49;100.00;100807.53;6217484;23;20459;-77
2021/12/26 03:37:14;;;;;;;;;;;;;;;-4.51;100.00;100818.72;6217563;23;20005;-77
2021/12/26 03:39:40;;;;;;;1.10;1.10;;;;;;;-4.47;100.00;100818.78;6217622;23;19970;-77
2021/12/26 03:42:06;;;;;;;1.20;1.20;;;;;;;-4.54;100.00;100818.69;6216977;23;20004;-77
2021/12/26 03:44:32;;;;;;;1.60;1.50;;;;;;;-4.52;100.00;100807.47;6217582;23;20011;-76
2021/12/26 03:46:57;;;;;;;1.10;1.10;;;;;;;-4.53;100.00;100815.22;6217963;23;20032;-76
2021/12/26 03:49:23;;;;;;;1.17;1.17;;;;;;;-4.61;100.00;100817.69;6216266;23;20000;-77
2021/12/26 03:51:48;;;;;;;1.45;1.35;;;;;;;-4.61;100.00;100806.44;6217301;23;20009;-76
2021/12/26 03:54:15;;;;;;;1.48;1.38;;;;;;;-4.62;100.00;100813.38;6217689;23;20235;-77
2021/12/26 03:57:00;;;;;;;1.30;1.30;;;;;;;-4.55;100.00;100812.59;6216126;23;20005;-77
2021/12/26 03:59:27;;;;;;;1.13;1.13;;;;;;;-4.56;100.00;100804.81;6217010;23;20005;-77
2021/12/26 04:01:56;;;;;;;1.20;1.20;;;;;;;-4.61;100.00;100807.31;6217488;23;20008;-76
2021/12/26 04:04:24;;;;;;;1.55;1.45;;;;;;;-4.66;100.00;100808.09;6217449;23;20004;-76
2021/12/26 04:06:50;;;;;;;1.10;1.10;;;;;;;-4.69;100.00;100808.91;6217590;23;20023;-76
2021/12/26 04:09:16;;;;;;;1.10;1.10;;;;;;;-4.64;100.00;100807.28;6216984;23;20008;-76
2021/12/26 04:11:44;;;;;;;1.10;1.10;;;;;;;-4.65;100.00;100802.94;6216068;23;20005;-77
2021/12/26 04:14:10;;;;;;;1.10;1.10;;;;;;;-4.69;100.00;100803.72;6217011;23;20011;-77
2021/12/26 04:16:35;;;;;;;1.10;1.10;;;;;;;-4.68;100.00;100801.16;6217732;23;20005;-76
2021/12/26 04:19:01;;;;;;;1.10;1.10;;;;;;;-4.74;100.00;100801.06;6216752;23;20058;-76
2021/12/26 04:21:26;;;;;;;1.10;1.10;;;;;;;-4.70;100.00;100808.03;6216852;23;20473;-76
2021/12/26 04:23:52;;;;;;;1.65;1.55;;;;;;;-4.70;100.00;100799.41;6216580;23;20088;-76
2021/12/26 04:26:17;;;;;;;1.58;1.48;;;;;;;-4.77;100.00;100810.50;6217118;23;20028;-76
2021/12/26 04:28:42;;;;;;;1.25;1.25;;;;;;;-4.72;100.00;100814.03;6216671;23;20044;-76
2021/12/26 04:31:08;;;;;;;1.20;1.20;;;;;;;-4.73;100.00;100807.13;6216401;23;20004;-75
2021/12/26 04:33:33;;;;;;;1.10;1.10;;;;;;;-4.77;100.00;100797.53;6216618;23;20387;-76
2021/12/26 04:35:59;;;;;;;1.10;1.10;;;;;;;-4.79;100.00;100796.66;6216599;23;20028;-76
2021/12/26 04:38:24;;;;;;;1.23;1.23;;;;;;;-4.68;100.00;100791.66;6216769;23;20405;-75
2021/12/26 04:40:51;;;;;;;1.10;1.10;;;;;;;-4.74;100.00;100795.88;6217538;23;20066;-76
2021/12/26 04:43:20;;;;;;;1.05;1.05;;;;;;;-4.75;100.00;100793.25;6217355;23;20004;-76
2021/12/26 04:45:45;;;;;;;1.48;1.38;;;;;;;-4.80;100.00;100789.72;6217449;23;20004;-76
2021/12/26 04:48:10;;;;;;;1.15;1.15;;;;;;;-4.85;100.00;100794.81;6216509;23;20439;-76
2021/12/26 04:50:36;;;;;;;1.27;1.27;;;;;;;-4.84;100.00;100785.34;6217570;23;20031;-76
2021/12/26 04:53:01;;;;;;;1.48;1.38;;;;;;;-4.82;100.00;100786.22;6216991;23;20372;-77
2021/12/26 04:55:28;;;;;;;1.30;1.30;;;;;;;-4.78;100.00;100786.31;6217331;23;20027;-77
2021/12/26 04:57:54;;;;;;;1.23;1.20;;;;;;;-4.78;100.00;100783.72;6216683;23;20148;-76
2021/12/26 05:00:22;;;;;;;1.20;1.20;;;;;;;-4.80;100.00;100784.53;6216433;23;20004;-76
2021/12/26 05:02:49;;;;;;;1.20;1.20;;;;;;;-4.85;100.00;100778.41;6216507;23;20076;-76
2021/12/26 05:05:15;;;;;;;1.20;1.20;;;;;;;-4.83;100.00;100768.94;6216372;23;20011;-76
2021/12/26 05:07:42;;;;;;;1.10;1.10;;;;;;;-4.86;100.00;100771.47;6216600;23;20001;-76
2021/12/26 05:10:10;;;;;;;1.20;1.20;;;;;;;-4.88;100.00;100779.22;6216303;23;20007;-77
2021/12/26 05:12:36;;;;;;;1.20;1.20;;;;;;;-4.93;100.00;100777.38;6217248;23;20073;-77
2021/12/26 05:15:06;;;;;;;1.45;1.35;;;;;;;-4.90;100.00;100777.47;6217334;23;20032;-76
2021/12/26 05:17:31;;;;;;;;;;;;;;;-4.94;100.00;100780.81;6218431;23;20008;-76
2021/12/26 05:19:57;;;;;;;1.52;1.42;;;;;;;-4.84;100.00;100778.41;6217025;23;19915;-76
2021/12/26 05:22:22;;;;;;;1.50;1.40;;;;;;;-4.92;100.00;100784.31;6217259;23;20004;-78
2021/12/26 05:24:48;;;;;;;1.20;1.20;;;;;;;-4.90;100.00;100786.09;6219080;23;20020;-76
2021/12/26 05:27:14;;;;;;;1.50;1.40;;;;;;;-4.96;100.00;100782.50;6217895;23;20416;-76
2021/12/26 05:29:40;;;;;;;1.50;1.40;;;;;;;-5.02;100.00;100770.34;6218779;23;20034;-76
2021/12/26 05:32:06;;;;;;;1.50;1.40;;;;;;;-5.03;100.00;100767.72;6218608;23;20012;-76
2021/12/26 05:34:31;;;;;;;1.20;1.20;;;;;;;-4.97;100.00;100776.47;6218699;23;20001;-76
2021/12/26 05:36:56;;;;;;;1.20;1.20;;;;;;;-4.98;100.00;100768.69;6219444;23;20100;-76
2021/12/26 05:39:22;;;;;;;1.50;1.40;;;;;;;-4.99;100.00;100769.50;6217997;23;20027;-76
2021/12/26 05:41:47;;;;;;;1.20;1.20;;;;;;;-5.03;100.00;100760.81;6218230;23;20012;-76
2021/12/26 05:44:13;;;;;;;1.20;1.20;;;;;;;-5.04;100.00;100761.66;6218942;23;20008;-77
2021/12/26 05:46:38;;;;;;;1.45;1.35;;;;;;;-5.05;100.00;100751.28;6218524;23;20005;-76
2021/12/26 05:49:06;;;;;;;1.40;1.30;;;;;;;-5.07;100.00;100748.66;6216551;23;20016;-75
2021/12/26 05:52:22;;;;;;;1.40;1.30;;;;;;;-5.08;100.00;100751.22;6217560;23;20425;-75
2021/12/26 05:55:00;;;;;;;1.35;1.30;;;;;;;-4.99;100.00;100748.78;6219020;23;20128;-75
2021/12/26 05:57:25;;;;;;;1.27;1.27;;;;;;;-5.10;100.00;100751.19;6217774;23;20456;-74
2021/12/26 05:59:51;;;;;;;1.20;1.20;;;;;;;-5.09;100.00;100752.94;6219092;23;20000;-74
2021/12/26 06:02:17;;;;;;;1.30;1.30;;;;;;;-5.11;100.00;100756.34;6216015;23;20015;-74
2021/12/26 06:04:42;;;;;;;1.30;1.30;;;;;;;-5.08;100.00;100746.03;6217618;23;20011;-75
2021/12/26 06:07:08;;;;;;;1.35;1.30;;;;;;;-5.06;100.00;100747.81;6217113;23;20463;-75
2021/12/26 06:09:33;;;;;;;1.40;1.30;;;;;;;-5.06;100.00;100742.63;6217948;23;20008;-75
2021/12/26 06:11:59;;;;;;;1.30;1.25;;;;;;;-5.05;100.00;100743.50;6218055;23;20333;-74
2021/12/26 06:14:24;;;;;;;1.58;1.48;;;;;;;-4.95;100.00;100748.03;6217651;23;20043;-75
2021/12/26 06:16:50;;;;;;;1.40;1.30;;;;;;;-5.03;100.00;100750.44;6216964;23;20001;-75
2021/12/26 06:19:16;;;;;;;1.52;1.42;;;;;;;-5.09;100.00;100752.94;6217011;23;20016;-74
2021/12/26 06:21:42;;;;;;;1.42;1.33;;;;;;;-5.10;100.00;100758.09;6217800;23;20019;-75
2021/12/26 06:24:08;;;;;;;1.27;1.27;;;;;;;-5.07;100.00;100759.03;6217611;23;20012;-75
2021/12/26 06:26:33;;;;;;;1.30;1.30;;;;;;;-5.13;100.00;100756.31;6218428;23;20063;-76
2021/12/26 06:29:00;;;;;;;1.20;1.20;;;;;;;-5.03;100.00;100754.78;6216221;23;20001;-75
2021/12/26 06:31:26;;;;;;;1.20;1.20;;;;;;;-5.06;100.00;100754.72;6217659;23;20054;-74
2021/12/26 06:33:51;;;;;;;1.20;1.20;;;;;;;-4.98;100.00;100760.91;6216383;23;20009;-74
2021/12/26 06:36:16;;;;;;;1.40;1.30;;;;;;;-5.08;100.00;100751.22;6218075;23;20005;-75
2021/12/26 06:38:43;;;;;;;1.98;1.85;;;;;;;-4.99;100.00;100756.56;6217913;23;20007;-75
2021/12/26 06:41:09;;;;;;;1.50;1.40;;;;;;;-5.03;100.00;100750.44;6217223;23;20417;-74
2021/12/26 06:43:35;;;;;;;1.42;1.33;;;;;;;-5.09;100.00;100741.72;6217730;23;20004;-74
2021/12/26 06:46:01;;;;;;;1.20;1.20;;;;;;;-5.07;100.00;100743.47;6217698;23;20282;-74
2021/12/26 06:48:27;;;;;;;1.80;1.70;;;;;;;-5.07;100.00;100745.19;6217398;23;20088;-74
2021/12/26 06:50:53;;;;;;;1.40;1.30;;;;;;;-5.08;100.00;100744.34;6217767;23;20083;-74
2021/12/26 06:53:18;;;;;;;1.55;1.45;;;;;;;-5.06;100.00;100739.19;6216426;23;20015;-74
2021/12/26 06:55:45;;;;;;;1.55;1.45;;;;;;;-4.95;100.00;100738.50;6216865;23;20013;-75
2021/12/26 06:58:12;;;;;;;1.45;1.42;;;;;;;-5.00;100.00;100739.28;6217235;23;20083;-74
2021/12/26 07:00:38;;;;;;;1.50;1.40;;;;;;;-5.06;100.00;100739.19;6217415;23;20004;-74
2021/12/26 07:03:03;;;;;;;1.25;1.25;;;;;;;-4.99;100.00;100741.03;6216789;23;20074;-74
2021/12/26 07:05:28;;;;;;;1.50;1.40;;;;;;;-5.01;100.00;100737.56;6217491;23;20009;-75
2021/12/26 07:07:54;;;;;;;1.73;1.63;;;;;;;-5.04;100.00;100737.47;6216625;23;20039;-75
2021/12/26 07:10:20;;;;;;;1.88;1.77;;;;;;;-5.07;100.00;100732.25;6217365;23;20011;-75
2021/12/26 07:12:46;;;;;;;1.50;1.40;;;;;;;-5.02;100.00;100731.50;6217065;23;20028;-74
2021/12/26 07:15:13;;;;;;;1.33;1.30;;;;;;;-5.09;100.00;100731.38;6216785;23;20028;-74
2021/12/26 07:17:40;;;;;;;1.40;1.30;;;;;;;-5.04;100.00;100735.78;6218035;23;20005;-74
2021/12/26 07:20:08;;;;;;;1.60;1.50;;;;;;;-5.05;100.00;100733.16;6216567;23;20017;-74
2021/12/26 07:22:34;;;;;;;1.40;1.30;;;;;;;-5.01;100.00;100727.19;6216469;23;20039;-75
2021/12/26 07:24:59;;;;;;;1.40;1.30;;;;;;;-5.06;100.00;100726.25;6218037;23;20005;-77
2021/12/26 07:27:24;;;;;;;1.50;1.42;;;;;;;-5.01;100.00;100737.56;6217148;23;20076;-76
2021/12/26 07:29:50;;;;;;;1.20;1.20;;;;;;;-5.03;100.00;100736.66;6216535;23;20005;-76
2021/12/26 07:32:16;;;;;;;1.50;1.40;;;;;;;-5.06;100.00;100737.44;6216282;23;20030;-75
2021/12/26 07:34:41;;;;;;;1.40;1.30;;;;;;;-5.00;100.00;100739.28;6215894;23;20006;-75
2021/12/26 07:37:08;;;;;;;1.65;1.55;;;;;;;-5.01;100.00;100740.16;6216572;23;20084;-75
2021/12/26 07:39:34;;;;;;;1.50;1.40;;;;;;;-4.96;100.00;100730.72;6217047;23;20008;-75
2021/12/26 07:41:59;;;;;;;2.00;1.90;;;;;;;-4.98;100.00;100732.44;6216935;23;20013;-75
2021/12/26 07:44:57;;;;;;;1.30;1.30;;;;;;;-5.01;100.00;100733.22;6217511;23;20058;-75
2021/12/26 07:47:48;;;;;;;1.20;1.20;;;;;;;-4.93;100.00;100741.13;6217128;23;20328;-82
2021/12/26 07:50:13;;;;;;;1.67;1.58;;;;;;;-4.96;100.00;100741.97;6216986;23;20020;-78
2021/12/26 07:52:42;;;;;;;1.63;1.52;;;;;;;-4.99;100.00;100738.44;6217414;23;20039;-79
2021/12/26 07:55:11;;;;;;;1.50;1.40;;;;;;;-5.01;100.00;100741.00;6216664;23;20293;-78
2021/12/26 07:57:37;;;;;;;1.60;1.50;;;;;;;-4.98;100.00;100732.44;6217306;23;20076;-78
2021/12/26 08:00:05;;;;;;;1.33;1.30;;;;;;;-4.97;100.00;100740.22;6216698;23;20313;-78
2021/12/26 08:02:31;;;;;;;1.67;1.58;;;;;;;-4.97;100.00;100735.03;6216320;23;20011;-78
2021/12/26 08:04:56;;;;;;;1.33;1.30;;;;;;;-4.95;100.00;100738.50;6217017;23;20083;-77
2021/12/26 08:07:22;;;;;;;1.50;1.40;;;;;;;-4.90;100.00;100746.38;6216990;23;20095;-78
2021/12/26 08:09:47;;;;;;;1.75;1.65;;;;;;;-4.89;100.00;100749.00;6240934;23;20084;-78
2021/12/26 08:12:15;;;;;;;1.40;1.30;;;;;;;-4.82;100.00;100739.59;6217344;23;20245;-80
2021/12/26 08:14:43;;;;;;;1.30;1.30;;;;;;;-4.84;100.00;100747.34;6217341;23;20005;-80
2021/12/26 08:17:18;;;;;;;1.50;1.40;;;;;;;-4.72;100.00;100742.38;6216742;23;20005;-81
2021/12/26 08:19:44;;;;;;;1.20;1.20;;;;;;;-4.70;100.00;100745.00;6215154;23;20005;-78
2021/12/26 08:22:12;;;;;;;1.13;1.13;;;;;;;-4.62;100.00;100743.41;6216952;23;20428;-83
2021/12/26 08:24:37;;;;;;;1.40;1.30;;;;;;;-4.73;100.00;100750.13;6216260;23;20009;-80
2021/12/26 08:27:03;;;;;;;1.50;1.40;;;;;;;-4.68;100.00;100733.81;6217430;23;20074;-78
2021/12/26 08:29:28;;;;;;;1.60;1.50;;;;;;;-4.63;100.00;100741.66;6217623;23;20070;-77
2021/12/26 08:31:57;;;;;;;1.40;1.30;;;;;;;-4.56;100.00;100738.31;6217240;23;20512;-77
2021/12/26 08:34:23;;;;;;;1.45;1.35;;;;;;;-4.57;100.00;100736.59;6216860;23;20012;-77
2021/12/26 08:37:00;;;;;;;1.20;1.20;;;;;;;-4.57;100.00;100743.47;6216755;23;20075;-77
2021/12/26 08:39:27;;;;;;;1.75;1.65;;;;;;;-4.46;100.00;100744.53;6216361;23;20024;-78
2021/12/26 08:41:53;;;;;;;1.35;1.33;;;;;;;-4.43;100.00;100737.69;6216952;23;20079;-80
2021/12/26 08:44:19;;;;;;;1.23;1.23;;;;;;;-4.40;100.00;100750.69;6216385;23;20340;-82
2021/12/26 08:46:46;;;;;;;1.20;1.20;;;;;;;-4.42;100.00;100741.13;6217264;23;20028;-78
2021/12/26 08:49:11;;;;;;;1.45;1.35;;;;;;;-4.31;100.00;100749.94;6216456;23;20008;-79
2021/12/26 08:51:37;;;;;;;1.23;1.23;;;;;;;-4.26;100.00;100743.97;6216729;23;20058;-79
2021/12/26 08:54:04;;;;;;;1.42;1.38;;;;;;;-4.17;100.00;100748.41;6217058;23;20143;-79
2021/12/26 08:56:30;;;;;;;1.45;1.35;;;;;;;-4.17;100.00;100753.59;6217219;23;20001;-82
2021/12/26 08:58:56;;;;;;;1.20;1.20;;;;;;;-4.10;100.00;100750.25;6217399;23;19995;-79
2021/12/26 09:01:22;;;;;;;1.35;1.30;;;;;;;-4.07;100.00;100747.72;6216638;23;20032;-79
2021/12/26 09:03:47;;;;;;;1.17;1.17;;;;;;;-3.99;100.00;100756.47;6216050;23;20008;-81
2021/12/26 09:06:16;;;;;;;1.88;1.77;;;;;;;-3.94;100.00;100753.06;6216495;23;20016;-79
2021/12/26 09:08:44;;;;;;;1.23;1.23;;;;;;;-3.83;100.00;100742.88;6217090;23;20076;-78
2021/12/26 09:11:10;;;;;;;1.10;1.10;;;;;;;-3.74;100.00;100736.06;6216375;23;20000;-77
2021/12/26 09:13:38;;;;;;;1.38;1.27;;;;;;;-3.67;100.00;100737.88;6216521;23;20427;-78
2021/12/26 09:16:04;;;;;;;1.60;1.50;;;;;;;-3.62;100.00;100741.41;6216690;23;20015;-79
2021/12/26 09:18:29;;;;;;;1.85;1.75;;;;;;;-3.65;100.00;100737.91;6216854;23;20088;-78
2021/12/26 09:21:00;;;;;;;1.30;1.30;;;;;;;-3.48;100.00;100737.25;6216167;23;20001;-81
2021/12/26 09:23:26;;;;;;;1.10;1.10;;;;;;;-3.32;100.00;100738.28;6216958;23;20429;-80
2021/12/26 09:25:51;;;;;;;1.10;1.10;;;;;;;-3.28;100.00;100738.34;6216937;23;20012;-79
2021/12/26 09:28:17;;;;;;;1.08;1.08;;;;;;;-3.07;100.00;100736.84;6216107;23;20009;-81
2021/12/26 09:30:42;;;;;;;1.42;1.33;;;;;;;-2.78;100.00;100735.38;6217023;23;20071;-77
2021/12/26 09:33:08;;;;;;;1.10;1.10;;;;;;;-2.63;100.00;100738.97;6216982;23;20000;-79
2021/12/26 09:35:33;;;;;;;1.30;1.27;;;;;;;-2.54;100.00;100739.09;6216618;23;20008;-77
2021/12/26 09:37:59;;;;;;;1.00;1.00;;;;;;;-2.43;100.00;100721.84;6217048;23;20031;-76
2021/12/26 09:40:26;;;;;;;0.95;0.95;;;;;;;-2.18;100.00;100733.28;6216157;23;20008;-78
2021/12/26 09:42:57;;;;;;;0.90;0.90;;;;;;;-2.23;100.00;100732.34;6214754;23;20005;-77
2021/12/26 09:45:34;;;;;;;1.05;1.05;;;;;;;-2.04;100.00;100727.31;6215102;23;20075;-78
2021/12/26 09:48:00;;;;;;;0.98;0.98;;;;;;;-2.03;100.00;100729.03;6214853;23;20000;-77
2021/12/26 09:50:27;;;;;;;1.00;1.00;;;;;;;-1.89;100.00;100716.13;6216481;23;20001;-78
2021/12/26 09:52:53;;;;;;;0.77;0.77;;;;;;;-1.96;100.00;100715.22;6216913;23;20007;-79
2021/12/26 09:55:19;;;;;;;1.00;1.00;;;;;;;-1.86;100.00;100709.16;6217187;23;20027;-79
2021/12/26 09:57:45;;;;;;;0.80;0.80;;;;;;;-1.73;100.00;100710.09;6217134;23;20409;-79
2021/12/26 10:00:24;;;;;;;0.80;0.80;;;;;;;-1.51;100.00;100706.72;6216763;23;20067;-79
2021/12/26 10:03:11;;;;;;;1.70;1.60;;;;;;;-1.50;100.00;100707.59;6216716;23;20016;-79
2021/12/26 10:06:17;;;;;;;0.80;0.80;;;;;;;-1.39;100.00;100711.97;6218141;23;20011;-78
2021/12/26 10:08:58;;;;;;;0.90;0.90;;;;;;;-1.15;100.00;100706.81;6218059;23;20421;-76
2021/12/26 10:11:32;;;;;;;1.25;1.20;;;;;;;-1.16;100.00;100702.47;6218467;23;20009;-80
2021/12/26 10:14:09;;;;;;;0.90;0.90;;;;;;;-1.23;100.00;100697.25;6219386;23;20004;-80
2021/12/26 10:16:44;;;;;;;0.70;0.70;;;;;;;-0.78;100.00;100694.72;6219047;23;20058;-80
2021/12/26 10:19:10;;;;;;;1.23;1.13;;;;;;;-1.00;100.00;100688.63;6218769;23;20431;-78
2021/12/26 10:21:42;;;;;;;0.90;0.90;;;;;;;-0.94;100.00;100696.44;6220936;23;20004;-78
2021/12/26 10:24:12;;;;;;;1.17;1.15;;;;;;;-0.94;100.00;100683.41;6218412;23;20013;-78
2021/12/26 10:26:59;;;;;;;0.85;0.85;;;;;;;-0.82;100.00;100683.41;6218179;23;20001;-79
2021/12/26 10:29:38;;;;;;;0.70;0.70;;;;;;;-0.95;100.00;100679.06;6218440;23;20005;-78
2021/12/26 10:32:12;;;;;;;0.80;0.80;;;;;;;-0.91;100.00;100678.19;6218154;23;20021;-78
2021/12/26 10:34:46;;;;;;;0.63;0.63;;;;;;;-1.04;100.00;100666.00;6218671;23;19997;-78
2021/12/26 10:37:21;;;;;;;0.82;0.82;;;;;;;-0.65;100.00;100667.78;6218096;23;20324;-79
2021/12/26 10:39:50;;;;;;;1.30;1.23;;;;;;;-0.80;100.00;100659.94;6218497;23;20004;-78
2021/12/26 10:42:22;;;;;;;0.80;0.80;;;;;;;-0.66;100.00;100656.47;6218462;23;20083;-78
2021/12/26 10:44:50;;;;;;;0.60;0.60;;;;;;;-0.61;100.00;100646.91;6218112;23;20004;-78
2021/12/26 10:47:20;;;;;;;0.80;0.80;;;;;;;-0.64;100.00;100652.13;6218271;23;20009;-79
2021/12/26 10:49:58;;;;;;;0.80;0.80;;;;;;;-0.62;100.00;100649.50;6217780;23;20036;-79
2021/12/26 10:52:30;;;;;;;0.57;0.57;;;;;;;-0.45;100.00;100647.75;6218807;23;20069;-78
2021/12/26 10:55:06;;;;;;;0.70;0.70;;;;;;;-0.50;100.00;100645.16;6218217;23;20017;-79
2021/12/26 10:57:34;;;;;;;0.77;0.77;;;;;;;-0.45;100.00;100635.59;6218071;23;20001;-79
2021/12/26 11:00:09;;;;;;;0.70;0.70;;;;;;;-0.47;100.00;100637.31;6217711;23;20009;-79
2021/12/26 11:02:35;;;;;;;0.70;0.70;;;;;;;-0.45;100.00;100639.94;6218150;23;20031;-78
2021/12/26 11:05:31;;;;;;;0.70;0.70;;;;;;;-0.45;100.00;100646.03;6217651;23;20004;-79
2021/12/26 11:08:37;;;;;;;1.08;1.05;;;;;;;-0.42;100.00;100647.75;6217451;23;20004;-79
2021/12/26 11:11:20;;;;;;;0.80;0.80;;;;;;;-0.16;100.00;100648.56;6217538;23;20437;-78
2021/12/26 11:13:46;;;;;;;0.80;0.80;;;;;;;0.06;100.00;100649.38;6218526;23;20004;-81
2021/12/26 11:16:13;;;;;;;0.60;0.60;;;;;;;0.02;100.00;100645.03;6217584;23;20001;-78
2021/12/26 11:18:39;;;;;;;0.80;0.80;;;;;;;0.00;100.00;100645.06;6217828;23;20012;-80
2021/12/26 11:21:07;;;;;;;0.60;0.60;;;;;;;0.19;100.00;100640.63;6217371;23;20040;-80
2021/12/26 11:23:40;;;;;;;0.60;0.60;;;;;;;0.23;100.00;100643.22;6218491;23;20334;-82
2021/12/26 11:26:09;;;;;;;1.05;1.05;;;;;;;0.34;100.00;100630.09;6217378;23;20096;-84
2021/12/26 11:28:40;;;;;;;0.60;0.60;;;;;;;0.36;100.00;100628.34;6218134;23;20000;-78
2021/12/26 11:31:40;;;;;;;1.10;1.05;;;;;;;0.33;100.00;100631.81;6217549;23;20004;-77
2021/12/26 11:34:09;;;;;;;;;;;;;;;0.13;100.00;100619.78;6215644;23;20088;-81